Time,TemperatureF,DewpointF,PressureIn,WindDirection,WindDirectionDegrees,WindSpeedMPH,WindSpeedGustMPH,Humidity,HourlyPrecipIn,Conditions,Clouds,dailyrainin,SolarRadiationWatts/m^2,SoftwareType,DateUTC
2013-06-11 00:05:00,54.0,51.0,29.93,West,277,1.0,6.0,90,0.00,,,0.00,0,weatherlink.com 1.10,2013-06-11 07:05:00,
2013-06-11 00:20:00,53.9,51.0,29.93,West,277,1.0,2.0,90,0.00,,,0.00,0,weatherlink.com 1.10,2013-06-11 07:20:00,
2013-06-11 00:35:00,53.8,51.0,29.93,West,271,2.0,4.0,90,0.00,,,0.00,0,weatherlink.com 1.10,2013-06-11 07:35:00,
2013-06-11 00:50:00,53.7,51.0,29.93,West,272,1.0,3.0,90,0.00,,,0.00,0,weatherlink.com 1.10,2013-06-11 07:50:00,
2013-06-11 01:05:00,53.6,51.0,29.94,West,278,0.0,3.0,90,0.00,,,0.00,0,weatherlink.com 1.10,2013-06-11 08:05:00,
2013-06-11 01:20:00,53.6,51.0,29.94,West,278,1.0,3.0,90,0.00,,,0.00,0,weatherlink.com 1.10,2013-06-11 08:20:00,
2013-06-11 01:35:00,53.5,51.0,29.94,West,278,2.0,3.0,91,0.00,,,0.00,0,weatherlink.com 1.10,2013-06-11 08:35:00,
2013-06-11 01:50:00,53.6,51.0,29.93,West,277,0.0,4.0,91,0.00,,,0.00,0,weatherlink.com 1.10,2013-06-11 08:50:00,
2013-06-11 02:05:00,53.6,51.0,29.93,West,277,0.0,2.0,91,0.00,,,0.00,0,weatherlink.com 1.10,2013-06-11 09:05:00,
2013-06-11 02:20:00,53.6,51.0,29.93,West,277,0.0,1.0,91,0.00,,,0.00,0,weatherlink.com 1.10,2013-06-11 09:20:00,
2013-06-11 02:35:00,53.8,51.0,29.93,West,277,0.0,2.0,91,0.00,,,0.00,0,weatherlink.com 1.10,2013-06-11 09:35:00,
2013-06-11 02:50:00,54.1,52.0,29.93,West,277,2.0,2.0,91,0.00,,,0.00,0,weatherlink.com 1.10,2013-06-11 09:50:00,
2013-06-11 03:05:00,54.4,52.0,29.93,West,281,1.0,4.0,90,0.00,,,0.00,0,weatherlink.com 1.10,2013-06-11 10:05:00,
2013-06-11 03:20:00,54.6,52.0,29.93,West,280,1.0,3.0,90,0.00,,,0.00,0,weatherlink.com 1.10,2013-06-11 10:20:00,
2013-06-11 03:35:00,54.7,52.0,29.92,West,280,0.0,2.0,89,0.00,,,0.00,0,weatherlink.com 1.10,2013-06-11 10:35:00,
2013-06-11 03:50:00,54.7,52.0,29.92,West,280,1.0,2.0,89,0.00,,,0.00,0,weatherlink.com 1.10,2013-06-11 10:50:00,
2013-06-11 04:05:00,54.7,52.0,29.92,West,280,0.0,2.0,89,0.00,,,0.00,0,weatherlink.com 1.10,2013-06-11 11:05:00,
2013-06-11 04:20:00,54.8,52.0,29.92,West,280,2.0,2.0,89,0.00,,,0.00,0,weatherlink.com 1.10,2013-06-11 11:20:00,
2013-06-11 04:35:00,54.8,52.0,29.92,West,280,1.0,3.0,90,0.00,,,0.00,0,weatherlink.com 1.10,2013-06-11 11:35:00,
2013-06-11 04:50:00,54.9,52.0,29.92,West,278,1.0,3.0,90,0.00,,,0.00,0,weatherlink.com 1.10,2013-06-11 11:50:00,
2013-06-11 05:05:00,54.9,52.0,29.92,West,278,0.0,2.0,90,0.00,,,0.00,0,weatherlink.com 1.10,2013-06-11 12:05:00,
2013-06-11 05:20:00,54.9,52.0,29.92,West,278,1.0,3.0,90,0.00,,,0.00,0,weatherlink.com 1.10,2013-06-11 12:20:00,
2013-06-11 05:35:00,54.9,52.0,29.93,West,278,0.0,2.0,90,0.00,,,0.00,0,weatherlink.com 1.10,2013-06-11 12:35:00,
2013-06-11 05:50:00,55.0,52.0,29.93,West,278,0.0,0.0,90,0.00,,,0.00,0,weatherlink.com 1.10,2013-06-11 12:50:00,
2013-06-11 06:05:00,55.0,52.0,29.94,West,278,0.0,2.0,90,0.00,,,0.00,0,weatherlink.com 1.10,2013-06-11 13:05:00,
2013-06-11 06:20:00,55.1,52.0,29.94,West,278,0.0,1.0,90,0.00,,,0.00,5,weatherlink.com 1.10,2013-06-11 13:20:00,
2013-06-11 06:35:00,55.1,53.0,29.95,West,278,1.0,2.0,91,0.00,,,0.00,16,weatherlink.com 1.10,2013-06-11 13:35:00,
2013-06-11 06:50:00,55.2,53.0,29.95,West,278,0.0,2.0,91,0.00,,,0.00,33,weatherlink.com 1.10,2013-06-11 13:50:00,
2013-06-11 07:06:00,55.4,53.0,29.95,West,278,0.0,0.0,91,0.00,,,0.00,46,weatherlink.com 1.10,2013-06-11 14:06:00,
2013-06-11 07:21:00,55.5,53.0,29.94,West,278,0.0,0.0,91,0.00,,,0.00,65,weatherlink.com 1.10,2013-06-11 14:21:00,
2013-06-11 07:36:00,55.9,53.0,29.95,West,278,0.0,1.0,91,0.00,,,0.00,67,weatherlink.com 1.10,2013-06-11 14:36:00,
2013-06-11 07:51:00,56.3,54.0,29.95,West,278,0.0,2.0,90,0.00,,,0.00,69,weatherlink.com 1.10,2013-06-11 14:51:00,
2013-06-11 08:06:00,56.7,54.0,29.96,West,278,0.0,2.0,89,0.00,,,0.00,72,weatherlink.com 1.10,2013-06-11 15:06:00,
2013-06-11 08:21:00,57.0,54.0,29.96,West,278,0.0,1.0,88,0.00,,,0.00,84,weatherlink.com 1.10,2013-06-11 15:21:00,
2013-06-11 08:36:00,57.3,53.0,29.97,West,278,0.0,3.0,86,0.00,,,0.00,79,weatherlink.com 1.10,2013-06-11 15:36:00,
2013-06-11 08:51:00,57.7,54.0,29.97,West,277,0.0,3.0,86,0.00,,,0.00,132,weatherlink.com 1.10,2013-06-11 15:51:00,
2013-06-11 09:36:00,58.0,54.0,29.98,West,277,0.0,4.0,85,0.00,,,0.00,183,weatherlink.com 1.10,2013-06-11 16:36:00,
2013-06-11 10:21:00,60.0,55.0,29.98,West,275,1.0,5.0,84,0.00,,,0.00,302,weatherlink.com 1.10,2013-06-11 17:21:00,
2013-06-11 10:36:00,61.3,54.0,29.98,West,277,1.0,2.0,78,0.00,,,0.00,396,weatherlink.com 1.10,2013-06-11 17:36:00,
2013-06-11 10:51:00,64.9,55.0,29.98,West,279,1.0,3.0,71,0.00,,,0.00,452,weatherlink.com 1.10,2013-06-11 17:51:00,
2013-06-11 11:06:00,65.8,56.0,29.97,WNW,286,1.0,3.0,70,0.00,,,0.00,837,weatherlink.com 1.10,2013-06-11 18:06:00,
2013-06-11 11:21:00,66.8,55.0,29.98,WNW,286,0.0,3.0,67,0.00,,,0.00,860,weatherlink.com 1.10,2013-06-11 18:21:00,
2013-06-11 11:36:00,69.2,55.0,29.98,NNE,24,2.0,3.0,62,0.00,,,0.00,882,weatherlink.com 1.10,2013-06-11 18:36:00,
2013-06-11 11:51:00,69.1,56.0,29.97,West,276,2.0,2.0,64,0.00,,,0.00,896,weatherlink.com 1.10,2013-06-11 18:51:00,
2013-06-11 12:06:00,69.1,55.0,29.97,West,274,2.0,3.0,61,0.00,,,0.00,912,weatherlink.com 1.10,2013-06-11 19:06:00,
2013-06-11 12:21:00,72.0,56.0,29.97,NNW,338,2.0,3.0,58,0.00,,,0.00,923,weatherlink.com 1.10,2013-06-11 19:21:00,
2013-06-11 12:36:00,71.0,57.0,29.96,West,281,1.0,5.0,62,0.00,,,0.00,925,weatherlink.com 1.10,2013-06-11 19:36:00,
2013-06-11 12:51:00,71.0,56.0,29.96,West,266,2.0,3.0,59,0.00,,,0.00,925,weatherlink.com 1.10,2013-06-11 19:51:00,
2013-06-11 13:06:00,72.1,56.0,29.96,West,271,1.0,5.0,58,0.00,,,0.00,919,weatherlink.com 1.10,2013-06-11 20:06:00,
2013-06-11 13:21:00,71.2,56.0,29.95,West,279,0.0,3.0,59,0.00,,,0.00,582,weatherlink.com 1.10,2013-06-11 20:21:00,
2013-06-11 13:36:00,71.2,56.0,29.95,SW,217,1.0,5.0,60,0.00,,,0.00,297,weatherlink.com 1.10,2013-06-11 20:36:00,
2013-06-11 13:51:00,73.5,56.0,29.95,West,260,0.0,4.0,54,0.00,,,0.00,111,weatherlink.com 1.10,2013-06-11 20:51:00,
2013-06-11 14:07:00,73.4,56.0,29.94,West,267,2.0,4.0,55,0.00,,,0.00,65,weatherlink.com 1.10,2013-06-11 21:07:00,
2013-06-11 14:22:00,73.7,55.0,29.94,West,270,2.0,5.0,53,0.00,,,0.00,100,weatherlink.com 1.10,2013-06-11 21:22:00,
2013-06-11 14:37:00,73.3,54.0,29.93,West,275,1.0,4.0,52,0.00,,,0.00,109,weatherlink.com 1.10,2013-06-11 21:37:00,
2013-06-11 14:52:00,73.1,55.0,29.93,West,275,0.0,5.0,53,0.00,,,0.00,91,weatherlink.com 1.10,2013-06-11 21:52:00,
2013-06-11 15:07:00,73.3,55.0,29.93,West,259,1.0,3.0,53,0.00,,,0.00,128,weatherlink.com 1.10,2013-06-11 22:07:00,
2013-06-11 15:22:00,73.4,54.0,29.93,West,274,1.0,3.0,51,0.00,,,0.00,142,weatherlink.com 1.10,2013-06-11 22:22:00,
2013-06-11 15:37:00,72.4,54.0,29.93,West,261,0.0,4.0,52,0.00,,,0.00,186,weatherlink.com 1.10,2013-06-11 22:37:00,
2013-06-11 15:52:00,72.8,55.0,29.93,North,360,0.0,3.0,53,0.00,,,0.00,148,weatherlink.com 1.10,2013-06-11 22:52:00,
2013-06-11 16:07:00,72.6,54.0,29.93,WSW,257,1.0,3.0,52,0.00,,,0.00,199,weatherlink.com 1.10,2013-06-11 23:07:00,
2013-06-11 16:22:00,71.9,54.0,29.93,SSE,165,0.0,2.0,54,0.00,,,0.00,200,weatherlink.com 1.10,2013-06-11 23:22:00,
2013-06-11 16:37:00,72.7,54.0,29.91,NW,314,0.0,3.0,53,0.00,,,0.00,176,weatherlink.com 1.10,2013-06-11 23:37:00,
2013-06-11 16:52:00,72.5,55.0,29.91,WNW,285,0.0,3.0,55,0.00,,,0.00,169,weatherlink.com 1.10,2013-06-11 23:52:00,
2013-06-11 17:07:00,72.3,55.0,29.91,WNW,299,0.0,3.0,55,0.00,,,0.00,181,weatherlink.com 1.10,2013-06-12 00:07:00,
2013-06-11 17:22:00,72.2,55.0,29.91,WSW,250,1.0,2.0,55,0.00,,,0.00,163,weatherlink.com 1.10,2013-06-12 00:22:00,
2013-06-11 17:37:00,72.3,55.0,29.90,East,96,0.0,3.0,55,0.00,,,0.00,146,weatherlink.com 1.10,2013-06-12 00:37:00,
2013-06-11 17:52:00,71.5,54.0,29.90,South,184,0.0,2.0,55,0.00,,,0.00,120,weatherlink.com 1.10,2013-06-12 00:52:00,
2013-06-11 18:07:00,70.8,55.0,29.89,South,184,0.0,1.0,57,0.00,,,0.00,113,weatherlink.com 1.10,2013-06-12 01:07:00,
2013-06-11 18:22:00,69.5,54.0,29.89,South,184,0.0,1.0,58,0.00,,,0.00,107,weatherlink.com 1.10,2013-06-12 01:22:00,
2013-06-11 18:37:00,69.2,55.0,29.89,South,184,0.0,1.0,60,0.00,,,0.00,113,weatherlink.com 1.10,2013-06-12 01:37:00,
2013-06-11 18:52:00,68.4,54.0,29.89,South,184,0.0,2.0,60,0.00,,,0.00,65,weatherlink.com 1.10,2013-06-12 01:52:00,
2013-06-11 19:07:00,66.4,54.0,29.89,South,190,0.0,3.0,64,0.00,,,0.00,30,weatherlink.com 1.10,2013-06-12 02:07:00,
2013-06-11 19:22:00,65.8,54.0,29.89,South,190,0.0,1.0,65,0.00,,,0.00,42,weatherlink.com 1.10,2013-06-12 02:22:00,
2013-06-11 19:37:00,66.0,54.0,29.89,ENE,77,0.0,3.0,65,0.00,,,0.00,60,weatherlink.com 1.10,2013-06-12 02:37:00,
2013-06-11 19:52:00,66.3,54.0,29.89,ENE,77,0.0,2.0,65,0.00,,,0.00,26,weatherlink.com 1.10,2013-06-12 02:52:00,
2013-06-11 20:07:00,65.5,54.0,29.89,ENE,77,0.0,1.0,66,0.00,,,0.00,11,weatherlink.com 1.10,2013-06-12 03:07:00,
2013-06-11 20:22:00,64.7,54.0,29.89,ENE,77,0.0,1.0,68,0.00,,,0.00,7,weatherlink.com 1.10,2013-06-12 03:22:00,
2013-06-11 20:37:00,63.6,54.0,29.89,ENE,77,0.0,1.0,70,0.00,,,0.00,0,weatherlink.com 1.10,2013-06-12 03:37:00,
2013-06-11 20:52:00,62.5,53.0,29.89,ENE,77,0.0,0.0,72,0.00,,,0.00,0,weatherlink.com 1.10,2013-06-12 03:52:00,
2013-06-11 21:07:00,62.1,53.0,29.89,ENE,77,0.0,1.0,72,0.00,,,0.00,0,weatherlink.com 1.10,2013-06-12 04:07:00,
2013-06-11 21:22:00,61.4,53.0,29.89,East,80,0.0,2.0,73,0.00,,,0.00,0,weatherlink.com 1.10,2013-06-12 04:22:00,
2013-06-11 21:37:00,60.5,53.0,29.90,East,80,0.0,0.0,75,0.00,,,0.00,0,weatherlink.com 1.10,2013-06-12 04:37:00,
2013-06-11 21:52:00,60.2,52.0,29.90,East,80,0.0,1.0,74,0.00,,,0.00,0,weatherlink.com 1.10,2013-06-12 04:52:00,
2013-06-11 22:07:00,60.0,52.0,29.90,East,80,0.0,1.0,74,0.00,,,0.00,0,weatherlink.com 1.10,2013-06-12 05:07:00,
2013-06-11 22:22:00,59.5,51.0,29.90,East,80,0.0,0.0,74,0.00,,,0.00,0,weatherlink.com 1.10,2013-06-12 05:22:00,
2013-06-11 22:37:00,58.9,51.0,29.90,East,80,0.0,0.0,76,0.00,,,0.00,0,weatherlink.com 1.10,2013-06-12 05:37:00,
2013-06-11 22:52:00,58.5,52.0,29.90,East,80,0.0,0.0,78,0.00,,,0.00,0,weatherlink.com 1.10,2013-06-12 05:52:00,
2013-06-11 23:07:00,58.2,51.0,29.89,East,80,0.0,0.0,78,0.00,,,0.00,0,weatherlink.com 1.10,2013-06-12 06:07:00,
2013-06-11 23:22:00,58.4,51.0,29.89,East,80,0.0,0.0,77,0.00,,,0.00,0,weatherlink.com 1.10,2013-06-12 06:22:00,
2013-06-11 23:37:00,58.2,51.0,29.89,East,80,0.0,0.0,77,0.00,,,0.00,0,weatherlink.com 1.10,2013-06-12 06:37:00,
2013-06-11 23:52:00,58.0,50.0,29.90,East,80,0.0,0.0,76,0.00,,,0.00,0,weatherlink.com 1.10,2013-06-12 06:52:00,